Ergebnisliste vom: 05.01.2020 - Rollmopslauf Grossenhain2020 - 8 km

weitere Ergebnisse >>

Platz Pl.m Pl.w Stnr. Name,Vorname Verein Ak AKm AKw Endzeit RŘckst.
1 1   222 Frohnwieser, Peter Dresden M35-39 1   0:27:59 0:00:00
2 2   284 Wartenberg, Jonas SG Motor Freital M20-29 1   0:29:15 0:01:16
3 3   281 Thieme, Holger SC Riesa M45-49 1   0:29:50 0:01:51
4 4   214 Duha, Robin SV Elbland Coswig-Mei├čen M30-34 1   0:30:11 0:02:12
5 5   246 Kitsche, Marco Klipphausen M40-44 1   0:30:15 0:02:16
6 6   274 Sch├╝tzka, Georg LG TuS Weinb├Âhla M30-34 2   0:30:16 0:02:17
7 7   272 Schultz, Rene Pumpenservice Gro├čbothen M45-49 2   0:31:51 0:03:52
8 8   328 Wolf, Daniel LG Priestewitz/SV Motor Gro├čenhain M45-49 3   0:31:52 0:03:53
9 9   363 Schwarzer, Roland Katzengebirgsl├Ąufer M35-39 2   0:31:55 0:03:56
10 10   333 Berndt, Thomas SSV Planeta Radebeul M50-54 1   0:32:03 0:04:04
11 11   311 Sittner, Falk LG Ultralauf M35-39 3   0:32:11 0:04:12
12 12   316 Hirsch, Marcus WSG D├Âbeln M35-39 4   0:32:18 0:04:19
13 13   320 Brodhuhn, Hubert LG Priestewitz M35-39 5   0:32:21 0:04:22
14   1 204 Beer, Jasmin jk running/Potsdamer Laufclub W20-29   1 0:32:40 0:04:41
15 14   250 Kretzschmar, Achim Holzhandel Ganzig M50-54 2   0:32:55 0:04:56
16 15   388 Papke, Torsten LG Priestewitz M30-34 3   0:33:21 0:05:22
17 16   385 Massen, Peter SC Riesa M40-44 2   0:33:23 0:05:24
18 17   269 Richter, Christian Citylauf-Verein Dresden M40-44 3   0:33:40 0:05:41
19 18   315 Dworatzek, Dirk Citylauf-Verein Dresden M20-29 2   0:34:06 0:06:07
20 19   210 B├Âhme, Kai SV Motor Gro├čenhain LG Priestewitz M50-54 3   0:34:17 0:06:18
21 20   340 Mutzke, Thomas Wei├čig a. Rasch├╝tz M45-49 4   0:34:38 0:06:39
22 21   352 Becker, Heiko Wacker Chemie N├╝nchritz M50-54 4   0:34:42 0:06:43
23 22   201 Bauer, Heiko D├Âbelner SV Vorw├Ąrts M45-49 5   0:34:46 0:06:47
24 23   258 Lorke-Philipp, Steffen RC 1898 Radeberg M60-64 1   0:34:49 0:06:50
25 24   263 Matz, J├╝rgen Citylauf-Verein Dresden M60-64 2   0:34:50 0:06:51
26 25   244 Jancker, Hans-Dieter SV Elbland Coswig-Mei├čen M65-69 1   0:34:54 0:06:55
27 26   228 Gorzel, Michael Citylauf-Verein Dresden M55-59 1   0:34:56 0:06:57
28 27   249 Kn├Âfel, Detlef Mei├čen M55-59 2   0:35:06 0:07:07
29 28   295 Gr├╝bler, Jonathan SV Chemie N├╝nchritz mu18 1   0:35:08 0:07:09
30 29   393 Mahnke, Justin FV Zabeltitz mu20 1   0:35:10 0:07:11
31 30   301 Witt, Florian SV Chemie N├╝nchritz mu18 2   0:35:11 0:07:12
32 31   223 G├Ąbler, Denis Moritzburger TV M45-49 6   0:35:27 0:07:28
33   2 238 Hoffmann, Lisa-Marie SV Elbland Coswig-Mei├čen wu20   1 0:35:31 0:07:32
34 32   389 Preu├čner, Dirk Lauffreunde N├╝ne M45-49 7   0:35:34 0:07:35
35 33   271 Rost, Denny EVE TARIES M40-44 4   0:35:39 0:07:40
36 34   289 Wittwer, Frank K & F Wittwer Dienstleistungsservice M50-54 5   0:35:41 0:07:42
37 35   306 Zeiske, Enrico Gro├čenhain M40-44 5   0:35:47 0:07:48
38 36   251 K├╝mmel, Paul LG Priestewitz mu20 2   0:35:51 0:07:52
39 37   351 Jahn, Thomas LG Priestewitz M40-44 6   0:36:02 0:08:03
40 38   298 Sch├Ąfer, Julius SV Chemie N├╝nchritz mu18 3   0:36:07 0:08:08
40 38   332 Hanatschek, Luca LG Priestewitz mu18 3   0:36:07 0:08:08
42 40   253 K├╝mmel, Stephan LG Priestewitz M50-54 6   0:36:13 0:08:14
43 41   211 B├Âhme, Sebastian Citylauf-Verein Dresden mu18 5   0:36:15 0:08:16
44   3 312 Hesse, Peggy Lauff├Ârdergruppe Gruna W45-49   1 0:36:16 0:08:17
45 42   368 Altermann, Tobias GSV M30-34 4   0:36:17 0:08:18
46 43   342 Peterek, Lars   M40-44 7   0:36:24 0:08:25
47 44   324 Dewitz, Heiko ESV LOK D├Âbeln M55-59 3   0:36:46 0:08:47
48 45   314 Kutschka von Rothenfels, Dominic Laufen total M20-29 3   0:36:59 0:09:00
49 46   356 Falkenthal, Frank Gro├čenhain M45-49 8   0:37:06 0:09:07
50 47   358 Mann, Daniel TV Dresden M40-44 8   0:37:07 0:09:08
51 48   234 H├Ąu├čler, Norman GRV M20-29 4   0:37:12 0:09:13
52 49   361 Papperitz, Matthias MC Jahnatal M40-44 9   0:37:13 0:09:14
53 50   231 Gr├Ânroos, Viki Strehla mu20 3   0:37:14 0:09:15
54 51   285 Werner, Thomas TV Moritzburg M50-54 7   0:37:17 0:09:18
55 52   381 Werner, Mirko SC Riesa Triathlon M35-39 6   0:37:19 0:09:20
56 53   308 Zeiske, Mirko Gro├čenhain M30-34 5   0:37:30 0:09:31
57 54   384 Kr├╝ger, Sten Clickslaufgruppe Dresden M50-54 8   0:37:41 0:09:42
58 55   245 Junghanns, Mario D├Âbeln M55-59 4   0:37:42 0:09:43
59   4 395 Hammer, Dorothea SC Riesa W40-44   1 0:37:49 0:09:50
60 56   225 Gering, Kevin Mei├čen M20-29 5   0:37:51 0:09:52
61   5 205 Behrisch, Jacobine Radeburg wu18   1 0:37:56 0:09:57
62 57   330 B├Âttger, Daniel N├╝nchritz M40-44 10   0:38:03 0:10:04
63 58   207 Berger, Victor TuS Coswig 1920 M65-69 2   0:38:06 0:10:07
64 59   230 Grett, Heiko EVE TARIES M40-44 11   0:38:11 0:10:12
65   6 331 Helas, Marina Citylaufverein Dresden W35-39   1 0:38:12 0:10:13
66 60   215 Emde, Michael Moritzburg M45-49 9   0:38:21 0:10:22
67   7 283 Wagner, Susann Coswig W40-44   2 0:38:25 0:10:26
68 61   357 Kim, Felix Die Tempolinsen M35-39 7   0:38:26 0:10:27
69 62   350 Scheibe, Robert Pulsen M30-34 6   0:38:28 0:10:29
70 63   309 Winkler, Jens SC Riesa M55-59 5   0:38:43 0:10:44
71 64   353 Beeg, Markus Mei├čen M40-44 12   0:38:50 0:10:51
72 65   372 K├╝hn, Henry Koma Gera OCR M35-39 8   0:38:57 0:10:58
73 66   338 Thieme, Rene Ebersbach M45-49 10   0:39:01 0:11:02
74 67   288 Winter, J├╝rgen LG TuS Weinb├Âhla M70-74 1   0:39:05 0:11:06
75 68   226 Giebler, Andr├ę LG TUS Weinb├Âhla M60-64 3   0:39:08 0:11:09
76 69   355 Nicklisch, Daniel SV Merzdorf Gr├Âden M40-44 13   0:39:09 0:11:10
77 70   236 Heyer, Ulrich Chemnitz M65-69 3   0:39:10 0:11:11
78 71   291 Zeidler, Karsten Ebersbach OT Lauterbach M45-49 11   0:39:12 0:11:13
79   8 323 Dewitz, Silke ESV LOK D├Âbeln W50-54   1 0:39:23 0:11:24
80 72   369 Thiel, Sebastian Gro├čenhain M30-34 7   0:39:34 0:11:35
81 73   218 Feder, Hartmut SC Riesa M60-64 4   0:39:37 0:11:38
82 74   339 Ruhland, J├Ârg Team Sport Ruscher M50-54 9   0:39:39 0:11:40
83   9 262 Matthes, Judith TV Dresden W40-44   3 0:40:01 0:12:02
83 75   360 B├╝├Ąnsch, Rene Lommatzsch M40-44 14   0:40:01 0:12:02
85   10 265 Mohr, Cornelia OSSV Kamenz W45-49   2 0:40:02 0:12:03
86 76   203 Beer, Carsten SV Wacker Komptendorf M50-54 10   0:40:05 0:12:06
87 77   344 B├╝di, Karel SC Riesa M50-54 11   0:40:07 0:12:08
88   11 321 Salzmann, Mandy SC Riesa Triathlon W40-44   4 0:40:13 0:12:14
89 78   294 Brandt, Remo SV Chemie N├╝nchritz M50-54 12   0:40:14 0:12:15
90 79   292 Zwicke, Hans-J├╝rgen SC Riesa M70-74 2   0:40:19 0:12:20
91   12 386 Preu├čner, Kristina Lauffreunde N├╝ne W45-49   3 0:40:27 0:12:28
92 80   376 Volkmann, Ben Gro├čenhainer FV mu20 4   0:40:29 0:12:30
93 81   349 Scheibe, Sebastian Pulsen M20-29 6   0:40:34 0:12:35
94   13 240 Hohenberg, Nicole LG TuS Weinb├Âhla W30-34   1 0:40:36 0:12:37
95 82   322 Renkert, Andreas Frauenhain M50-54 13   0:40:43 0:12:44
96 83   377 Strau├č, Florian Gro├čenhainer FV mu20 5   0:40:45 0:12:46
97 84   379 Enger, Lenny Gro├čenhainer FV mu20 6   0:40:48 0:12:49
98   14 224 Gei├čler, Heike D├Âbeln W50-54   2 0:40:49 0:12:50
99 85   390 Klotzsche, Bj├Ârn Winkelwichtel M40-44 15   0:40:53 0:12:54
100   15 290 Zange, Andrea Mei├čen W55-59   1 0:41:02 0:13:03
101 86   206 Behrisch, Siegmar Radeburg M65-69 4   0:41:12 0:13:13
102 87   337 Hammer, Andre Mei├čen M40-44 16   0:41:28 0:13:29
103 88   327 Rox, Andreas Ebersbach M60-64 5   0:41:37 0:13:38
104   16 286 Werske, Birgit Dresden W35-39   2 0:41:40 0:13:41
105   17 354 Becker, Ines Beckham Strehla W50-54   3 0:42:01 0:14:02
106 89   264 Meinhardt, Tobias Winkelwichtel M30-34 8   0:42:03 0:14:04
107 90   319 Golbs, Michael Tauchclub Abyss Meissen M50-54 14   0:42:07 0:14:08
108   18 317 Herzig, Marika M├╝geln W40-44   5 0:42:13 0:14:14
109 91   307 B├Ąnsch, Gerd Laufgruppe Nossen M45-49 12   0:42:14 0:14:15
110 92   261 Matthes, Andre TV Dresden M50-54 15   0:42:19 0:14:20
111   19 391 Hammer, Grit Naund├Ârfel W35-39   3 0:42:20 0:14:21
112 93   335 Wohs, Olaf TuS Coswig 1920 M50-54 16   0:42:22 0:14:23
113 94   233 Gustke, Ulf Radeburg M50-54 17   0:42:25 0:14:26
114 95   279 Stiehler, Maximilian Dresden M20-29 7   0:42:30 0:14:31
115   20 239 Hofmann, Katrin TSV Dresden W50-54   4 0:42:46 0:14:47
116 96   326 Urban, Gerd runnig boys M55-59 6   0:42:49 0:14:50
117   21 235 Heyer, Ina Chemnitz W40-44   6 0:43:03 0:15:04
118 97   248 Klenke, Michael Zeithain OT Gohlis M55-59 7   0:43:10 0:15:11
119   22 293 Blaas, Aline SV Chemie N├╝nchritz W20-29   2 0:43:13 0:15:14
120 98   380 Kranke, Moritz Gro├čenhainer FV mu20 7   0:43:22 0:15:23
121 99   266 M├╝ller, Uwe Leisnig M50-54 18   0:43:25 0:15:26
122 100   237 Hoffmann, Hagen Naunhof M50-54 19   0:43:29 0:15:30
123 101   302 Witt, Michael SV Chemie N├╝nchritz M40-44 17   0:43:35 0:15:36
124 102   382 Herrmann, Jens SV Chemie NUN M50-54 20   0:43:36 0:15:37
125   23 243 Irmscher, Gwen ASB Riesa wu18   2 0:43:37 0:15:38
126   24 329 Richter, Manuela LG Priestewitz W45-49   4 0:43:38 0:15:39
127   25 296 Richter, Jette SV Chemie N├╝nchritz wu18   3 0:43:39 0:15:40
128   26 242 Irmscher, Antje Riesa W40-44   7 0:43:50 0:15:51
129   27 318 Schruttke, Grit   W55-59   2 0:43:51 0:15:52
130 103   325 Machill, Thomas LG TuS Weinb├Âhla M55-59 8   0:43:56 0:15:57
131   28 297 Richter, Sabine SV Chemie N├╝nchritz W35-39   4 0:43:57 0:15:58
131   28 362 Kothe, Melanie SV Scharfenberg W40-44   8 0:43:57 0:15:58
133 104   267 Pauli, Carsten Die Paulizei M40-44 18   0:44:02 0:16:03
134   30 304 Veith, Doreen SV Scharfenberg W30-34   2 0:44:10 0:16:11
135   31 374 Bormann, Sophie SV Elbland Coswig Mei├čen W35-39   5 0:44:18 0:16:19
136   32 209 B├Âhme, Birgit Dresden W55-59   3 0:44:24 0:16:25
137 105   268 Raschke, Holger Gro├čenhain M50-54 21   0:44:26 0:16:27
138 106   212 Breschke, Matthias Priestewitz M60-64 6   0:44:28 0:16:29
139 107   394 Gro├čmann, Kai Welxande M40-44 19   0:44:33 0:16:34
140   33 252 K├╝mmel, Petra LG Priestewitz W55-59   4 0:45:01 0:17:02
141   34 366 Berge, Anett Riesa W55-59   5 0:45:13 0:17:14
142 108   232 Gursinsky, Frank TSV Reichenberg M55-59 9   0:45:22 0:17:23
143   35 383 Hilse, Yvette Peritz W50-54   5 0:45:29 0:17:30
144   36 280 Te├čmann, Birgit LSV Pirna W50-54   6 0:45:36 0:17:37
145   37 365 Hempel, Maika Radebeul W45-49   5 0:45:48 0:17:49
146 109   392 Noppes, Ralf SV Nordwind Naund├Ârfel M40-44 20   0:45:53 0:17:54
147   38 359 Sturm, Karina Mei├čen W40-44   9 0:45:54 0:17:55
148 110   367 Brucksch, Tilo Peritz M45-49 13   0:45:55 0:17:56
149 111   282 Vorbau, Manuel TTV 73 Gro├čenhain M35-39 9   0:45:56 0:17:57
150 112   343 Zahn, Thomas Frauenhain M45-49 14   0:46:19 0:18:20
151 113   305 Hentschel, Sandro   M45-49 15   0:46:25 0:18:26
152   39 387 H├Ârdler, Claudia Lauffreunde N├╝ne W50-54   7 0:46:38 0:18:39
153   40 299 Stockmann, Sylvana SV Chemie N├╝nchritz W40-44   10 0:46:46 0:18:47
154 114   364 Oeser, Konrad Friedewald M70-74 3   0:46:52 0:18:53
155 115   241 Imhof, Erwin Mei├čen mu18 6   0:47:03 0:19:04
156 116   255 Lehmkuhle, Hans J├╝rgen SV Motor Gro├čenhain M65-69 5   0:47:08 0:19:09
157 117   347 Krille, Steffen SV Wildenhain M55-59 10   0:47:27 0:19:28
158   41 336 Philipp-Wohs, Peggy TuS Coswig 1920 W45-49   6 0:47:32 0:19:33
159 118   378 Richter, Jonas GFV mu20 8   0:47:56 0:19:57
160 119   257 List, Hans-Joachim Ruhland M70-74 4   0:48:14 0:20:15
161   42 213 Breschke, Rita Priestewitz W55-59   6 0:48:15 0:20:16
162   43 300 Wagenhaus, Lilli SV Chemie N├╝nchritz wu18   4 0:48:33 0:20:34
163   44 341 Wolf, Denise LG Priestewitz W40-44   11 0:48:37 0:20:38
164 120   371 Eulitz, Carsten Koma Gera OCR M40-44 21   0:48:38 0:20:39
165   45 270 Rosch, Saskia Mei├čen W35-39   6 0:49:22 0:21:23
166   46 220 Fischer, Ute TSV 1888 Falkenau W50-54   8 0:49:23 0:21:24
167 121   334 Zimmermann, Peter Gro├čenhain M35-39 10   0:49:33 0:21:34
168 122   208 Boeck, Andr├ę N├╝nchritz M40-44 22   0:49:34 0:21:35
169 123   346 Goldbach, Thomas Betten Goldbach M45-49 16   0:49:35 0:21:36
170   47 217 Englisch, Sandy Dresden W50-54   9 0:50:05 0:22:06
171   48 370 Grellert, Cindy Hirschfeld W30-34   3 0:50:37 0:22:38
172   49 345 R├Âder, Birgit SC Riesa W50-54   10 0:50:49 0:22:50
173   50 396 Eytenberg, Annett ESV Dresden W40-44   12 0:51:04 0:23:05
174   51 348 Krille, Sabine SV Wildenhain W55-59   7 0:51:16 0:23:17
175 124   277 Seefeld, Stefan Weinb├Âhla M40-44 23   0:51:19 0:23:20
176   52 273 Schulze, Stefanie Streumen W30-34   4 0:51:21 0:23:22
177   53 216 Endruschat, Sarah W├╝lknitz W30-34   5 0:51:22 0:23:23
178 125   287 Wick, Peter LG TuS Weinb├Âhla M60-64 7   0:52:07 0:24:08
179   54 260 Marckhoff, Pirkko Katja Gro├čenhain W40-44   13 0:52:50 0:24:51
180   55 313 Kutschka von Rothenfels, Ines Serkowitzer FSV W40-44   14 0:54:07 0:26:08
181   56 276 Seefeld, Sandra Weinb├Âhla W40-44   15 0:55:37 0:27:38
182   57 373 Gruschwitz, Ramona Priestewitz W55-59   8 0:57:19 0:29:20
183   58 219 Feder, Ramona Mei├čen W55-59   9 0:58:24 0:30:25
(c) 1990-2020 Blue Wonder Sport Promotion - Andreas Burow - Zeitnahme & Auswertung - www.Triathlon-Service.de